Time;durP1;ratioP1;P1;durP2;ratioP2;P2;SDS_P1;SDS_P2;PMS_P1;PMS_P2;Temp;Humidity;BMP_temperature;BMP_pressure;BME280_temperature;BME280_humidity;BME280_pressure;Samples;Min_cycle;Max_cycle;Signal;HPM_P1;HPM_P2
2022/06/16 00:01:36;;;;;;;0.00;0.00;;;;;;;;;;4947724;29;20440;-72
2022/06/16 00:04:01;;;;;;;0.00;0.00;;;;;;;;;;4948916;29;20046;-72
2022/06/16 00:06:27;;;;;;;0.00;0.00;;;;;;;;;;4949132;29;20031;-71
2022/06/16 00:08:52;;;;;;;0.00;0.00;;;;;;;;;;4950097;29;20038;-71
2022/06/16 00:11:17;;;;;;;0.00;0.00;;;;;;;;;;4949798;29;20388;-69
2022/06/16 00:13:43;;;;;;;0.00;0.00;;;;;;;;;;4950983;29;20779;-69
2022/06/16 00:16:09;;;;;;;0.00;0.00;;;;;;;;;;4931896;29;20557;-71
2022/06/16 00:18:34;;;;;;;0.05;0.05;;;;;;;;;;4950339;29;20026;-69
2022/06/16 00:21:00;;;;;;;0.00;0.00;;;;;;;;;;4950169;28;20031;-70
2022/06/16 00:23:25;;;;;;;0.00;0.00;;;;;;;;;;4950272;29;20027;-71
2022/06/16 00:25:50;;;;;;;0.00;0.00;;;;;;;;;;4949018;29;20034;-69
2022/06/16 00:28:16;;;;;;;0.07;0.07;;;;;;;;;;4948995;29;20102;-73
2022/06/16 00:30:41;;;;;;;0.00;0.00;;;;;;;;;;4932306;29;20259;-73
2022/06/16 00:33:07;;;;;;;0.00;0.00;;;;;;;;;;4949860;29;20042;-72
2022/06/16 00:35:32;;;;;;;0.00;0.00;;;;;;;;;;4949075;29;20500;-72
2022/06/16 00:37:57;;;;;;;0.00;0.00;;;;;;;;;;4932500;29;20119;-73
2022/06/16 00:40:23;;;;;;;0.00;0.00;;;;;;;;;;4950111;29;20034;-71
2022/06/16 00:42:48;;;;;;;0.00;0.00;;;;;;;;;;4949232;29;20023;-72
2022/06/16 00:45:32;;;;;;;0.00;0.00;;;;;;;;;;4948892;29;20019;-72
2022/06/16 00:48:00;;;;;;;0.00;0.00;;;;;;;;;;4948357;29;20107;-72
2022/06/16 00:50:25;;;;;;;0.00;0.00;;;;;;;;;;4949863;29;20812;-71
2022/06/16 00:52:50;;;;;;;0.00;0.00;;;;;;;;;;4948758;29;20023;-72
2022/06/16 00:55:16;;;;;;;0.08;0.08;;;;;;;;;;4947972;29;20028;-72
2022/06/16 00:57:43;;;;;;;0.00;0.00;;;;;;;;;;4947985;29;20492;-73
2022/06/16 01:00:16;;;;;;;0.00;0.00;;;;;;;;;;4948630;29;20040;-73
2022/06/16 01:02:42;;;;;;;0.00;0.00;;;;;;;;;;4948765;29;20027;-71
2022/06/16 01:05:07;;;;;;;0.00;0.00;;;;;;;;;;4947345;29;20054;-71
2022/06/16 01:07:35;;;;;;;0.00;0.00;;;;;;;;;;4948120;29;20058;-71
2022/06/16 01:10:01;;;;;;;0.00;0.00;;;;;;;;;;4948129;29;20031;-69
2022/06/16 01:15:30;;;;;;;0.55;0.15;;;;;;;;;;4948240;29;20054;-69
2022/06/16 01:18:00;;;;;;;0.00;0.00;;;;;;;;;;4948554;29;20097;-72
2022/06/16 01:20:25;;;;;;;;;;;;;;;;;;4948398;29;20019;-71
2022/06/16 01:22:56;;;;;;;0.03;0.03;;;;;;;;;;4947467;29;19993;-70
2022/06/16 01:25:25;;;;;;;0.00;0.00;;;;;;;;;;4930744;29;20078;-71
2022/06/16 01:28:13;;;;;;;0.00;0.00;;;;;;;;;;4947889;29;20030;-71
2022/06/16 01:30:52;;;;;;;0.00;0.00;;;;;;;;;;4947936;29;20031;-71
2022/06/16 01:33:26;;;;;;;0.00;0.00;;;;;;;;;;4947276;28;20472;-71
2022/06/16 01:35:51;;;;;;;0.00;0.00;;;;;;;;;;4947434;29;20071;-71
2022/06/16 01:38:22;;;;;;;0.03;0.03;;;;;;;;;;4946930;29;20077;-74
2022/06/16 01:40:47;;;;;;;0.20;0.20;;;;;;;;;;4930480;29;20027;-74
2022/06/16 01:43:32;;;;;;;5.47;1.00;;;;;;;;;;4947919;29;20041;-72
2022/06/16 01:46:04;;;;;;;0.00;0.00;;;;;;;;;;4948075;29;20035;-72
2022/06/16 01:48:30;;;;;;;0.00;0.00;;;;;;;;;;4930276;29;20070;-70
2022/06/16 01:51:17;;;;;;;0.00;0.00;;;;;;;;;;4946978;29;20031;-71
2022/06/16 01:53:45;;;;;;;0.00;0.00;;;;;;;;;;4929708;29;20051;-72
2022/06/16 01:56:34;;;;;;;0.00;0.00;;;;;;;;;;4947623;29;20030;-71
2022/06/16 01:59:01;;;;;;;0.00;0.00;;;;;;;;;;4937739;29;20047;-73
2022/06/16 02:01:28;;;;;;;0.00;0.00;;;;;;;;;;4947414;29;20756;-71
2022/06/16 02:03:57;;;;;;;0.70;0.70;;;;;;;;;;4930223;29;20051;-71
2022/06/16 02:06:23;;;;;;;0.00;0.00;;;;;;;;;;4929944;29;20023;-71
2022/06/16 02:08:52;;;;;;;0.00;0.00;;;;;;;;;;4947472;29;20106;-71
2022/06/16 02:11:20;;;;;;;0.10;0.10;;;;;;;;;;4945001;29;20447;-73
2022/06/16 02:13:52;;;;;;;0.00;0.00;;;;;;;;;;4947919;29;20660;-72
2022/06/16 02:16:19;;;;;;;0.30;0.30;;;;;;;;;;4930015;29;20318;-73
2022/06/16 02:18:45;;;;;;;0.00;0.00;;;;;;;;;;4947835;29;20119;-73
2022/06/16 02:21:10;;;;;;;0.00;0.00;;;;;;;;;;4946852;29;20850;-71
2022/06/16 02:23:35;;;;;;;0.10;0.10;;;;;;;;;;4947068;29;20026;-73
2022/06/16 02:26:01;;;;;;;0.00;0.00;;;;;;;;;;4947722;29;20023;-73
2022/06/16 02:28:26;;;;;;;0.00;0.00;;;;;;;;;;4946721;29;20114;-73
2022/06/16 02:31:03;;;;;;;0.00;0.00;;;;;;;;;;4947487;29;20059;-73
2022/06/16 02:33:41;;;;;;;0.00;0.00;;;;;;;;;;4946935;29;20791;-72
2022/06/16 02:36:20;;;;;;;0.00;0.00;;;;;;;;;;4947577;29;20027;-72
2022/06/16 02:38:50;;;;;;;0.00;0.00;;;;;;;;;;4946319;29;20023;-72
2022/06/16 02:41:31;;;;;;;0.00;0.00;;;;;;;;;;4946030;29;20030;-72
2022/06/16 02:44:08;;;;;;;0.00;0.00;;;;;;;;;;4947178;28;20493;-73
2022/06/16 02:46:52;;;;;;;0.00;0.00;;;;;;;;;;4950961;29;20489;-72
2022/06/16 02:49:33;;;;;;;0.00;0.00;;;;;;;;;;4950710;29;20030;-72
2022/06/16 02:52:17;;;;;;;0.00;0.00;;;;;;;;;;4933356;29;20747;-73
2022/06/16 02:54:42;;;;;;;0.00;0.00;;;;;;;;;;4934091;29;20027;-72
2022/06/16 02:57:10;;;;;;;0.00;0.00;;;;;;;;;;4950166;29;20102;-72
2022/06/16 02:59:41;;;;;;;0.00;0.00;;;;;;;;;;4950105;29;20027;-71
2022/06/16 03:02:12;;;;;;;0.00;0.00;;;;;;;;;;4951338;29;20035;-70
2022/06/16 03:04:38;;;;;;;0.00;0.00;;;;;;;;;;4951072;29;20047;-69
2022/06/16 03:07:04;;;;;;;0.00;0.00;;;;;;;;;;4951005;29;20051;-69
2022/06/16 03:09:29;;;;;;;0.00;0.00;;;;;;;;;;4950857;29;20073;-73
2022/06/16 03:11:54;;;;;;;0.00;0.00;;;;;;;;;;4951123;29;20038;-73
2022/06/16 03:14:20;;;;;;;0.00;0.00;;;;;;;;;;4950531;29;20031;-72
2022/06/16 03:16:45;;;;;;;0.75;0.75;;;;;;;;;;4932816;29;20113;-72
2022/06/16 03:19:11;;;;;;;0.20;0.20;;;;;;;;;;4949969;29;20400;-73
2022/06/16 03:21:36;;;;;;;0.00;0.00;;;;;;;;;;4950323;29;20369;-72
2022/06/16 03:24:01;;;;;;;0.00;0.00;;;;;;;;;;4950385;29;20027;-72
2022/06/16 03:26:26;;;;;;;0.55;0.55;;;;;;;;;;4949093;29;20029;-71
2022/06/16 03:28:52;;;;;;;0.00;0.00;;;;;;;;;;4950350;29;20093;-71
2022/06/16 03:31:17;;;;;;;0.00;0.00;;;;;;;;;;4949967;29;20423;-71
2022/06/16 03:33:43;;;;;;;0.00;0.00;;;;;;;;;;4950438;29;20049;-73
2022/06/16 03:36:09;;;;;;;0.22;0.22;;;;;;;;;;4949987;29;20118;-70
2022/06/16 03:38:43;;;;;;;0.00;0.00;;;;;;;;;;4933387;29;20043;-67
2022/06/16 03:41:10;;;;;;;0.00;0.00;;;;;;;;;;4934628;29;20038;-67
2022/06/16 03:43:35;;;;;;;0.28;0.28;;;;;;;;;;4952102;29;20026;-68
2022/06/16 03:46:01;;;;;;;0.00;0.00;;;;;;;;;;4951859;29;20392;-67
2022/06/16 03:48:26;;;;;;;0.00;0.00;;;;;;;;;;4950971;29;20027;-67
2022/06/16 03:50:51;;;;;;;0.00;0.00;;;;;;;;;;4951519;29;20115;-69
2022/06/16 03:53:16;;;;;;;0.32;0.15;;;;;;;;;;4950391;29;20027;-68
2022/06/16 03:55:42;;;;;;;0.00;0.00;;;;;;;;;;4949590;28;20027;-71
2022/06/16 03:58:07;;;;;;;0.00;0.00;;;;;;;;;;4949391;29;20073;-70
2022/06/16 04:00:32;;;;;;;0.22;0.22;;;;;;;;;;4949606;29;20468;-69
2022/06/16 04:05:41;;;;;;;1.23;1.23;;;;;;;;;;4949759;29;20094;-72
2022/06/16 04:08:07;;;;;;;0.10;0.10;;;;;;;;;;4948539;29;20820;-71
2022/06/16 04:10:33;;;;;;;0.20;0.20;;;;;;;;;;4950427;28;20023;-72
2022/06/16 04:12:58;;;;;;;0.08;0.08;;;;;;;;;;4950954;28;20031;-70
2022/06/16 04:15:23;;;;;;;0.00;0.00;;;;;;;;;;4950199;29;20458;-70
2022/06/16 04:17:48;;;;;;;0.03;0.03;;;;;;;;;;4949503;29;20144;-71
2022/06/16 04:20:14;;;;;;;0.00;0.00;;;;;;;;;;4949724;28;20019;-71
2022/06/16 04:22:39;;;;;;;0.13;0.13;;;;;;;;;;4949058;28;20107;-72
2022/06/16 04:25:07;;;;;;;0.35;0.35;;;;;;;;;;4949833;28;20486;-73
2022/06/16 04:27:32;;;;;;;0.00;0.00;;;;;;;;;;4947611;29;20397;-73
2022/06/16 04:29:58;;;;;;;0.00;0.00;;;;;;;;;;4949441;28;20023;-73
2022/06/16 04:32:23;;;;;;;0.00;0.00;;;;;;;;;;4948841;28;20031;-74
2022/06/16 04:34:48;;;;;;;0.00;0.00;;;;;;;;;;4948794;29;20066;-71
2022/06/16 04:37:13;;;;;;;0.00;0.00;;;;;;;;;;4949082;29;20038;-71
2022/06/16 04:39:39;;;;;;;0.00;0.00;;;;;;;;;;4948077;28;20062;-71
2022/06/16 04:42:04;;;;;;;1.38;1.00;;;;;;;;;;4948028;29;20019;-71
2022/06/16 04:44:31;;;;;;;1.08;0.63;;;;;;;;;;4947757;29;20023;-72
2022/06/16 04:46:56;;;;;;;0.00;0.00;;;;;;;;;;4948940;28;20034;-71
2022/06/16 04:49:22;;;;;;;0.00;0.00;;;;;;;;;;4948980;29;20544;-70
2022/06/16 04:51:47;;;;;;;0.00;0.00;;;;;;;;;;4947719;29;20031;-71
2022/06/16 04:54:12;;;;;;;0.00;0.00;;;;;;;;;;4948941;28;20094;-67
2022/06/16 04:56:37;;;;;;;0.00;0.00;;;;;;;;;;4950840;29;20023;-65
2022/06/16 04:59:03;;;;;;;0.00;0.00;;;;;;;;;;4950580;29;20023;-65
2022/06/16 05:01:28;;;;;;;0.05;0.00;;;;;;;;;;4951706;29;20023;-64
2022/06/16 05:03:53;;;;;;;0.17;0.17;;;;;;;;;;4951456;29;20121;-64
2022/06/16 05:06:19;;;;;;;0.00;0.00;;;;;;;;;;4951613;29;20486;-63
2022/06/16 05:08:44;;;;;;;0.00;0.00;;;;;;;;;;4950690;28;20093;-62
2022/06/16 05:11:09;;;;;;;0.00;0.00;;;;;;;;;;4951031;29;20152;-63
2022/06/16 05:13:35;;;;;;;0.00;0.00;;;;;;;;;;4950236;29;20035;-61
2022/06/16 05:16:00;;;;;;;0.00;0.00;;;;;;;;;;4950470;29;20038;-61
2022/06/16 05:18:25;;;;;;;0.30;0.30;;;;;;;;;;4950239;29;20023;-62
2022/06/16 05:20:50;;;;;;;5.68;1.55;;;;;;;;;;4950819;29;20049;-62
2022/06/16 05:23:16;;;;;;;0.00;0.00;;;;;;;;;;4951041;29;20024;-62
2022/06/16 05:25:41;;;;;;;0.22;0.22;;;;;;;;;;4951207;29;20042;-63
2022/06/16 05:28:07;;;;;;;0.10;0.10;;;;;;;;;;4950488;29;20031;-63
2022/06/16 05:30:33;;;;;;;0.00;0.00;;;;;;;;;;4951316;29;20453;-64
2022/06/16 05:32:58;;;;;;;0.00;0.00;;;;;;;;;;4951526;29;20011;-63
2022/06/16 05:35:23;;;;;;;0.10;0.10;;;;;;;;;;4951005;29;20034;-63
2022/06/16 05:37:49;;;;;;;0.38;0.38;;;;;;;;;;4950484;29;20106;-62
2022/06/16 05:40:14;;;;;;;0.00;0.00;;;;;;;;;;4933775;29;20030;-63
2022/06/16 05:42:39;;;;;;;0.00;0.00;;;;;;;;;;4949881;29;20026;-62
2022/06/16 05:45:05;;;;;;;0.00;0.00;;;;;;;;;;4950925;29;20023;-63
2022/06/16 05:47:30;;;;;;;0.00;0.00;;;;;;;;;;4950309;29;20023;-62
2022/06/16 05:49:55;;;;;;;0.00;0.00;;;;;;;;;;4948272;29;20027;-63
2022/06/16 05:52:21;;;;;;;0.15;0.15;;;;;;;;;;4950454;29;20069;-64
2022/06/16 05:54:47;;;;;;;0.17;0.17;;;;;;;;;;4951294;29;20038;-64
2022/06/16 05:57:12;;;;;;;0.00;0.00;;;;;;;;;;4949448;29;20034;-64
2022/06/16 05:59:38;;;;;;;1.52;0.57;;;;;;;;;;4948034;29;20050;-64
2022/06/16 06:02:05;;;;;;;0.00;0.00;;;;;;;;;;4949059;29;20023;-63
2022/06/16 06:04:31;;;;;;;0.90;0.55;;;;;;;;;;4949649;29;20425;-63
2022/06/16 06:06:56;;;;;;;0.47;0.47;;;;;;;;;;4948744;29;20163;-64
2022/06/16 06:17:35;;;;;;;0.88;0.88;;;;;;;;;;4950446;28;20057;-65
2022/06/16 06:20:01;;;;;;;0.25;0.25;;;;;;;;;;4950482;28;20516;-66
2022/06/16 06:22:26;;;;;;;0.43;0.30;;;;;;;;;;4953772;28;20167;-66
2022/06/16 06:24:54;;;;;;;0.30;0.30;;;;;;;;;;4951019;29;20026;-67
2022/06/16 06:27:19;;;;;;;0.05;0.05;;;;;;;;;;4950146;29;20489;-67
2022/06/16 06:29:45;;;;;;;0.70;0.70;;;;;;;;;;4949068;29;20114;-67
2022/06/16 06:32:11;;;;;;;0.20;0.20;;;;;;;;;;4951012;29;20276;-65
2022/06/16 06:34:37;;;;;;;0.52;0.52;;;;;;;;;;4953282;29;20035;-65
2022/06/16 06:37:02;;;;;;;0.00;0.00;;;;;;;;;;4950680;29;20035;-66
2022/06/16 06:39:27;;;;;;;0.10;0.10;;;;;;;;;;4946506;29;20041;-65
2022/06/16 06:41:53;;;;;;;0.22;0.10;;;;;;;;;;4947824;29;20023;-65
2022/06/16 06:44:18;;;;;;;0.00;0.00;;;;;;;;;;4947682;29;20469;-66
2022/06/16 06:46:43;;;;;;;0.20;0.20;;;;;;;;;;4946856;29;20820;-65
2022/06/16 06:49:08;;;;;;;0.50;0.50;;;;;;;;;;4947022;29;20035;-63
2022/06/16 06:51:34;;;;;;;0.25;0.15;;;;;;;;;;4947364;29;20042;-64
2022/06/16 06:53:59;;;;;;;0.68;0.68;;;;;;;;;;4945744;29;20042;-64
2022/06/16 06:56:25;;;;;;;0.05;0.05;;;;;;;;;;4946071;29;20020;-65
2022/06/16 06:58:54;;;;;;;0.47;0.47;;;;;;;;;;4947313;29;20035;-64
2022/06/16 07:01:20;;;;;;;0.10;0.10;;;;;;;;;;4947396;29;20022;-67
2022/06/16 07:03:46;;;;;;;0.00;0.00;;;;;;;;;;4946087;29;20492;-66
2022/06/16 07:06:12;;;;;;;0.28;0.28;;;;;;;;;;4930199;29;20118;-67
2022/06/16 07:08:37;;;;;;;0.40;0.40;;;;;;;;;;4946276;29;20608;-67
2022/06/16 07:11:02;;;;;;;0.10;0.10;;;;;;;;;;4947714;29;20089;-65
2022/06/16 07:13:28;;;;;;;0.35;0.35;;;;;;;;;;4947306;29;20747;-67
2022/06/16 07:15:53;;;;;;;0.65;0.30;;;;;;;;;;4947585;28;20168;-65
2022/06/16 07:18:18;;;;;;;0.35;0.35;;;;;;;;;;4947337;29;20660;-68
2022/06/16 07:20:43;;;;;;;0.00;0.00;;;;;;;;;;4947501;29;20472;-68
2022/06/16 07:23:10;;;;;;;0.00;0.00;;;;;;;;;;4946122;29;20465;-68
2022/06/16 07:25:36;;;;;;;0.15;0.15;;;;;;;;;;4948567;29;20259;-72
2022/06/16 07:28:01;;;;;;;0.10;0.10;;;;;;;;;;4946550;28;20077;-66
2022/06/16 07:30:26;;;;;;;0.00;0.00;;;;;;;;;;4944360;28;20057;-65
2022/06/16 07:32:52;;;;;;;0.28;0.28;;;;;;;;;;4946867;29;20023;-67
2022/06/16 07:35:19;;;;;;;0.90;0.90;;;;;;;;;;4948009;29;20040;-65
2022/06/16 07:37:45;;;;;;;1.35;0.43;;;;;;;;;;4944452;29;20070;-66
2022/06/16 07:40:12;;;;;;;0.15;0.15;;;;;;;;;;4947021;29;20027;-67
2022/06/16 07:42:38;;;;;;;0.52;0.52;;;;;;;;;;4946247;29;21010;-69
2022/06/16 07:45:03;;;;;;;0.57;0.57;;;;;;;;;;4947130;29;20105;-67
2022/06/16 07:47:29;;;;;;;0.00;0.00;;;;;;;;;;4949518;28;21498;-69
2022/06/16 07:49:54;;;;;;;0.30;0.30;;;;;;;;;;4947937;28;20027;-68
2022/06/16 07:52:19;;;;;;;0.10;0.10;;;;;;;;;;4946902;28;21018;-66
2022/06/16 07:54:45;;;;;;;1.27;0.22;;;;;;;;;;4952679;28;20031;-67
2022/06/16 07:57:10;;;;;;;1.60;1.55;;;;;;;;;;4951495;28;20839;-68
2022/06/16 07:59:36;;;;;;;2.50;0.30;;;;;;;;;;4950631;29;20023;-66
2022/06/16 08:02:01;;;;;;;0.30;0.13;;;;;;;;;;4951947;28;20101;-67
2022/06/16 08:04:26;;;;;;;1.85;1.17;;;;;;;;;;4948281;28;20136;-67
2022/06/16 08:06:52;;;;;;;0.20;0.20;;;;;;;;;;4946801;29;20023;-66
2022/06/16 08:09:17;;;;;;;0.20;0.20;;;;;;;;;;4946264;29;20081;-67
2022/06/16 08:14:26;;;;;;;0.30;0.30;;;;;;;;;;4946848;29;20087;-68
2022/06/16 08:16:52;;;;;;;1.20;1.10;;;;;;;;;;4947115;29;20035;-67
2022/06/16 08:19:17;;;;;;;0.82;0.82;;;;;;;;;;4947240;29;20464;-67
2022/06/16 08:21:42;;;;;;;2.08;1.15;;;;;;;;;;4946205;29;20031;-66
2022/06/16 08:24:08;;;;;;;0.40;0.40;;;;;;;;;;4947765;29;20503;-67
2022/06/16 08:26:34;;;;;;;0.00;0.00;;;;;;;;;;4945322;29;20326;-64
2022/06/16 08:28:59;;;;;;;2.65;0.47;;;;;;;;;;4943936;29;20469;-65
2022/06/16 08:31:25;;;;;;;0.25;0.25;;;;;;;;;;4944657;29;20034;-64
2022/06/16 08:33:51;;;;;;;0.10;0.05;;;;;;;;;;4944653;29;20102;-64
2022/06/16 08:36:17;;;;;;;0.47;0.47;;;;;;;;;;4943746;29;20027;-64
2022/06/16 08:38:42;;;;;;;0.85;0.80;;;;;;;;;;4927325;29;20082;-64
2022/06/16 08:41:11;;;;;;;0.10;0.10;;;;;;;;;;4945348;29;20448;-64
2022/06/16 08:43:42;;;;;;;0.30;0.30;;;;;;;;;;4944576;28;20023;-63
2022/06/16 08:46:08;;;;;;;0.85;0.85;;;;;;;;;;4945027;29;20476;-67
2022/06/16 08:48:52;;;;;;;1.00;1.00;;;;;;;;;;4944452;29;20031;-65
2022/06/16 08:51:20;;;;;;;0.47;0.47;;;;;;;;;;4944367;29;20816;-70
2022/06/16 08:54:00;;;;;;;0.98;0.90;;;;;;;;;;4943724;29;20027;-66
2022/06/16 08:56:43;;;;;;;0.00;0.00;;;;;;;;;;4944416;29;20031;-65
2022/06/16 08:59:21;;;;;;;0.00;0.00;;;;;;;;;;4945169;29;20803;-66
2022/06/16 09:02:03;;;;;;;1.67;1.42;;;;;;;;;;4945530;29;20019;-65
2022/06/16 09:04:40;;;;;;;0.00;0.00;;;;;;;;;;4943318;28;20051;-67
2022/06/16 09:07:09;;;;;;;8.80;1.25;;;;;;;;;;4946914;29;20484;-64
2022/06/16 09:12:55;;;;;;;0.00;0.00;;;;;;;;;;4948226;29;20087;-66
2022/06/16 09:15:38;;;;;;;0.00;0.00;;;;;;;;;;4951204;29;20109;-65
2022/06/16 09:18:03;;;;;;;7.32;0.98;;;;;;;;;;4951208;29;20171;-66
2022/06/16 09:20:34;;;;;;;7.53;1.23;;;;;;;;;;4945723;29;20102;-66
2022/06/16 09:23:19;;;;;;;0.95;0.60;;;;;;;;;;4950970;28;20478;-65
2022/06/16 09:25:51;;;;;;;0.75;0.75;;;;;;;;;;4933427;29;20085;-66
2022/06/16 09:28:22;;;;;;;0.77;0.77;;;;;;;;;;4950247;29;20016;-65
2022/06/16 09:30:50;;;;;;;0.38;0.38;;;;;;;;;;4951183;29;20030;-66
2022/06/16 09:33:18;;;;;;;0.00;0.00;;;;;;;;;;4949490;29;20106;-67
2022/06/16 09:35:47;;;;;;;0.25;0.25;;;;;;;;;;4950526;29;20035;-66
2022/06/16 09:38:18;;;;;;;1.17;1.17;;;;;;;;;;4949111;29;20020;-66
2022/06/16 09:40:46;;;;;;;0.40;0.40;;;;;;;;;;4948305;29;20090;-67
2022/06/16 09:43:17;;;;;;;0.00;0.00;;;;;;;;;;4949060;29;20023;-66
2022/06/16 09:45:45;;;;;;;0.80;0.80;;;;;;;;;;4949311;29;20400;-66
2022/06/16 09:48:18;;;;;;;0.47;0.47;;;;;;;;;;4948470;29;20035;-67
2022/06/16 09:50:50;;;;;;;2.58;1.00;;;;;;;;;;4948296;29;20278;-67
2022/06/16 09:53:28;;;;;;;0.75;0.75;;;;;;;;;;4947845;28;20094;-66
2022/06/16 09:56:02;;;;;;;2.58;1.10;;;;;;;;;;4948726;29;20034;-67
2022/06/16 09:58:46;;;;;;;0.20;0.20;;;;;;;;;;4949848;29;20640;-66
2022/06/16 10:01:14;;;;;;;0.68;0.68;;;;;;;;;;4930338;29;20027;-68
2022/06/16 10:03:53;;;;;;;0.40;0.27;;;;;;;;;;4947860;28;20059;-67
2022/06/16 10:06:38;;;;;;;1.20;0.85;;;;;;;;;;4949469;29;20369;-67
2022/06/16 10:09:12;;;;;;;1.75;0.30;;;;;;;;;;4946923;28;20035;-66
2022/06/16 10:11:40;;;;;;;0.13;0.13;;;;;;;;;;4949304;28;20035;-66
2022/06/16 10:14:12;;;;;;;2.08;1.10;;;;;;;;;;4949161;29;20030;-66
2022/06/16 10:16:46;;;;;;;0.28;0.28;;;;;;;;;;4947270;29;20061;-67
2022/06/16 10:19:12;;;;;;;1.40;1.30;;;;;;;;;;4948335;29;20039;-66
2022/06/16 10:21:37;;;;;;;0.30;0.30;;;;;;;;;;4930647;29;20388;-66
2022/06/16 10:24:04;;;;;;;0.43;0.43;;;;;;;;;;4930895;29;20031;-66
2022/06/16 10:26:29;;;;;;;0.43;0.43;;;;;;;;;;4946686;28;20031;-66
2022/06/16 10:29:03;;;;;;;0.55;0.40;;;;;;;;;;4948577;29;20034;-67
2022/06/16 10:31:45;;;;;;;0.00;0.00;;;;;;;;;;4949552;29;20023;-67
2022/06/16 10:34:17;;;;;;;0.10;0.10;;;;;;;;;;4951068;28;20511;-66
2022/06/16 10:36:45;;;;;;;7.00;2.10;;;;;;;;;;4948697;28;20102;-66
2022/06/16 10:39:16;;;;;;;0.52;0.52;;;;;;;;;;4948972;28;20054;-66
2022/06/16 10:41:54;;;;;;;0.88;0.47;;;;;;;;;;4930307;29;20027;-67
2022/06/16 10:44:20;;;;;;;0.75;0.30;;;;;;;;;;4945837;29;20438;-66
2022/06/16 10:46:51;;;;;;;0.00;0.00;;;;;;;;;;4947846;29;20508;-67
2022/06/16 10:49:21;;;;;;;0.98;0.77;;;;;;;;;;4947610;29;20027;-67
2022/06/16 10:51:49;;;;;;;0.00;0.00;;;;;;;;;;4953420;28;20114;-67
2022/06/16 10:54:20;;;;;;;0.10;0.10;;;;;;;;;;4953848;29;20094;-67
2022/06/16 10:56:46;;;;;;;0.68;0.68;;;;;;;;;;4953789;29;20031;-66
2022/06/16 10:59:14;;;;;;;0.28;0.28;;;;;;;;;;4952413;29;20027;-66
2022/06/16 11:01:46;;;;;;;0.10;0.10;;;;;;;;;;4952970;29;20357;-67
2022/06/16 11:04:23;;;;;;;0.60;0.60;;;;;;;;;;4950073;29;20499;-65
2022/06/16 11:06:57;;;;;;;1.08;1.08;;;;;;;;;;4954800;28;20066;-66
2022/06/16 11:09:23;;;;;;;2.53;2.33;;;;;;;;;;4952519;28;20110;-66
2022/06/16 11:11:53;;;;;;;0.00;0.00;;;;;;;;;;4951845;28;20111;-66
2022/06/16 11:14:30;;;;;;;0.10;0.10;;;;;;;;;;4951151;28;20054;-66
2022/06/16 11:16:55;;;;;;;1.05;0.88;;;;;;;;;;4955968;28;20083;-65
2022/06/16 11:19:41;;;;;;;0.10;0.10;;;;;;;;;;4955132;28;20019;-66
2022/06/16 11:22:24;;;;;;;0.00;0.00;;;;;;;;;;4954706;29;20552;-66
2022/06/16 11:24:54;;;;;;;0.20;0.20;;;;;;;;;;4954956;29;20073;-66
2022/06/16 11:27:19;;;;;;;0.05;0.05;;;;;;;;;;4953511;29;20553;-66
2022/06/16 11:29:45;;;;;;;1.30;1.30;;;;;;;;;;4954069;29;20114;-66
2022/06/16 11:32:19;;;;;;;0.30;0.30;;;;;;;;;;4953420;29;20045;-66
2022/06/16 11:34:45;;;;;;;0.55;0.55;;;;;;;;;;4951369;29;20130;-66
2022/06/16 11:37:37;;;;;;;8.75;0.93;;;;;;;;;;4953059;29;20074;-66
2022/06/16 11:40:14;;;;;;;0.93;0.90;;;;;;;;;;4950890;29;20036;-65
2022/06/16 11:42:39;;;;;;;1.45;1.27;;;;;;;;;;4952742;29;20019;-66
2022/06/16 11:45:12;;;;;;;1.92;1.77;;;;;;;;;;4954111;29;20019;-65
2022/06/16 11:47:56;;;;;;;0.10;0.10;;;;;;;;;;4953720;29;20463;-66
2022/06/16 11:50:24;;;;;;;0.00;0.00;;;;;;;;;;4953393;29;20039;-65
2022/06/16 11:52:55;;;;;;;0.00;0.00;;;;;;;;;;4953320;29;20068;-66
2022/06/16 11:55:39;;;;;;;0.00;0.00;;;;;;;;;;4952656;29;20038;-66
2022/06/16 11:58:23;;;;;;;0.00;0.00;;;;;;;;;;4950098;29;20027;-66
2022/06/16 12:00:57;;;;;;;0.20;0.20;;;;;;;;;;4934637;29;20106;-66
2022/06/16 12:03:22;;;;;;;0.90;0.90;;;;;;;;;;4952544;28;20035;-65
2022/06/16 12:05:59;;;;;;;4.45;0.40;;;;;;;;;;4952223;29;20413;-66
2022/06/16 12:08:48;;;;;;;0.30;0.30;;;;;;;;;;4950905;29;20461;-66
2022/06/16 12:11:33;;;;;;;0.00;0.00;;;;;;;;;;4952637;29;20023;-66
2022/06/16 12:14:01;;;;;;;0.00;0.00;;;;;;;;;;4950926;29;20027;-66
2022/06/16 12:16:30;;;;;;;0.32;0.32;;;;;;;;;;4949825;28;20031;-66
2022/06/16 12:19:14;;;;;;;0.03;0.03;;;;;;;;;;4951802;29;20059;-66
2022/06/16 12:21:41;;;;;;;0.00;0.00;;;;;;;;;;4951504;29;20024;-66
2022/06/16 12:24:12;;;;;;;0.77;0.77;;;;;;;;;;4951341;29;20031;-66
2022/06/16 12:26:57;;;;;;;0.30;0.30;;;;;;;;;;4949835;29;20038;-67
2022/06/16 12:29:31;;;;;;;0.98;0.85;;;;;;;;;;4949774;29;20023;-65
2022/06/16 12:32:11;;;;;;;0.95;0.88;;;;;;;;;;4950989;29;20106;-66
2022/06/16 12:34:37;;;;;;;0.00;0.00;;;;;;;;;;4950374;29;20034;-65
2022/06/16 12:37:06;;;;;;;1.17;1.17;;;;;;;;;;4950972;29;20388;-65
2022/06/16 12:39:31;;;;;;;;;;;;;;;;;;4949744;28;20259;-66
2022/06/16 12:41:59;;;;;;;1.02;0.98;;;;;;;;;;4950637;29;19914;-65
2022/06/16 12:44:53;;;;;;;0.05;0.05;;;;;;;;;;4950509;29;20036;-66
2022/06/16 12:47:30;;;;;;;0.00;0.00;;;;;;;;;;4936290;29;20480;-66
2022/06/16 12:50:14;;;;;;;0.98;0.98;;;;;;;;;;4949214;29;20039;-67
2022/06/16 12:52:42;;;;;;;0.00;0.00;;;;;;;;;;4949295;29;20026;-65
2022/06/16 12:55:11;;;;;;;5.10;0.50;;;;;;;;;;4947366;29;20086;-66
2022/06/16 12:57:36;;;;;;;;;;;;;;;;;;4949728;29;20130;-66
2022/06/16 13:00:20;;;;;;;0.17;0.17;;;;;;;;;;4947589;29;20112;-66
2022/06/16 13:03:04;;;;;;;0.00;0.00;;;;;;;;;;4946813;29;20023;-66
2022/06/16 13:05:30;;;;;;;0.03;0.03;;;;;;;;;;4948159;29;20093;-66
2022/06/16 13:07:57;;;;;;;0.00;0.00;;;;;;;;;;4948681;29;20429;-66
2022/06/16 13:10:23;;;;;;;0.20;0.20;;;;;;;;;;4948689;29;20030;-66
2022/06/16 13:12:50;;;;;;;0.77;0.77;;;;;;;;;;4948129;29;20476;-66
2022/06/16 13:15:21;;;;;;;0.43;0.43;;;;;;;;;;4948268;29;20023;-65
2022/06/16 13:18:06;;;;;;;0.40;0.40;;;;;;;;;;4930082;29;20039;-65
2022/06/16 13:20:32;;;;;;;0.00;0.00;;;;;;;;;;4948036;29;20167;-65
2022/06/16 13:23:11;;;;;;;0.75;0.55;;;;;;;;;;4946256;29;20102;-66
2022/06/16 13:25:53;;;;;;;1.52;1.42;;;;;;;;;;4948872;29;20022;-66
2022/06/16 13:28:29;;;;;;;0.43;0.43;;;;;;;;;;4946945;28;20528;-66
2022/06/16 13:31:09;;;;;;;0.75;0.70;;;;;;;;;;4946654;28;20027;-66
2022/06/16 13:33:47;;;;;;;0.63;0.63;;;;;;;;;;4951663;28;20030;-65
2022/06/16 13:36:38;;;;;;;0.90;0.90;;;;;;;;;;4949098;29;20165;-65
2022/06/16 13:39:05;;;;;;;0.43;0.43;;;;;;;;;;4946722;28;20043;-66
2022/06/16 13:41:44;;;;;;;0.40;0.40;;;;;;;;;;4948579;29;20338;-66
2022/06/16 13:44:09;;;;;;;;;;;;;;;;;;4949254;29;20046;-65
2022/06/16 13:46:53;;;;;;;0.23;0.20;;;;;;;;;;4948834;29;19910;-65
2022/06/16 13:49:29;;;;;;;0.85;0.68;;;;;;;;;;4944196;28;20275;-66
2022/06/16 13:52:05;;;;;;;0.70;0.70;;;;;;;;;;4952056;28;20023;-66
2022/06/16 13:54:35;;;;;;;0.43;0.43;;;;;;;;;;4951832;28;20031;-66
2022/06/16 13:57:17;;;;;;;0.40;0.40;;;;;;;;;;4949471;28;20473;-66
2022/06/16 13:59:44;;;;;;;0.28;0.28;;;;;;;;;;4950396;29;20059;-67
2022/06/16 14:02:11;;;;;;;0.00;0.00;;;;;;;;;;4953048;28;20062;-68
2022/06/16 14:05:00;;;;;;;0.17;0.17;;;;;;;;;;4950168;28;20058;-67
2022/06/16 14:07:25;;;;;;;;;;;;;;;;;;4945647;29;20126;-67
2022/06/16 14:10:00;;;;;;;0.35;0.35;;;;;;;;;;4930891;29;20041;-67
2022/06/16 14:12:46;;;;;;;0.22;0.22;;;;;;;;;;4947028;29;20027;-66
2022/06/16 14:15:12;;;;;;;0.20;0.20;;;;;;;;;;4945569;29;20038;-66
2022/06/16 14:17:37;;;;;;;0.00;0.00;;;;;;;;;;4945318;29;20796;-65
2022/06/16 14:20:06;;;;;;;0.00;0.00;;;;;;;;;;4947916;29;20110;-65
2022/06/16 14:22:34;;;;;;;0.60;0.60;;;;;;;;;;4947690;28;20019;-65
2022/06/16 14:25:02;;;;;;;1.00;0.50;;;;;;;;;;4945970;29;20023;-67
2022/06/16 14:27:31;;;;;;;0.35;0.35;;;;;;;;;;4947201;29;20023;-66
2022/06/16 14:29:56;;;;;;;;;;;;;;;;;;4947451;29;20028;-66
2022/06/16 14:32:24;;;;;;;0.10;0.10;;;;;;;;;;4947879;29;19918;-65
2022/06/16 14:35:03;;;;;;;0.20;0.20;;;;;;;;;;4948112;29;20464;-65
2022/06/16 14:37:29;;;;;;;;;;;;;;;;;;4948931;29;20035;-66
2022/06/16 14:40:01;;;;;;;0.32;0.32;;;;;;;;;;4949063;28;20340;-66
2022/06/16 14:42:31;;;;;;;0.43;0.43;;;;;;;;;;4951591;29;20086;-66
2022/06/16 14:44:58;;;;;;;0.98;0.63;;;;;;;;;;4952451;29;20030;-66
2022/06/16 14:47:44;;;;;;;1.02;0.32;;;;;;;;;;4950991;28;20054;-66
2022/06/16 14:50:15;;;;;;;0.00;0.00;;;;;;;;;;4951128;29;20083;-66
2022/06/16 14:52:42;;;;;;;1.17;1.17;;;;;;;;;;4952002;28;20027;-66
2022/06/16 14:55:12;;;;;;;0.00;0.00;;;;;;;;;;4954647;28;20055;-66
2022/06/16 14:57:39;;;;;;;0.00;0.00;;;;;;;;;;4934478;29;20030;-66
2022/06/16 15:00:05;;;;;;;0.10;0.10;;;;;;;;;;4952144;29;20461;-67
2022/06/16 15:02:31;;;;;;;0.00;0.00;;;;;;;;;;4951757;29;20027;-67
2022/06/16 15:04:58;;;;;;;1.38;0.63;;;;;;;;;;4952047;29;20043;-68
2022/06/16 15:07:24;;;;;;;0.10;0.10;;;;;;;;;;4952760;29;20049;-68
2022/06/16 15:09:49;;;;;;;0.00;0.00;;;;;;;;;;4951339;29;20039;-69
2022/06/16 15:12:15;;;;;;;0.35;0.35;;;;;;;;;;4952022;29;20506;-66
2022/06/16 15:14:41;;;;;;;0.00;0.00;;;;;;;;;;4951022;29;20392;-64
2022/06/16 15:19:53;;;;;;;0.00;0.00;;;;;;;;;;4948951;29;20078;-65
2022/06/16 15:22:19;;;;;;;0.08;0.08;;;;;;;;;;4946956;29;20027;-65